Time;durP1;ratioP1;P1;durP2;ratioP2;P2;SDS_P1;SDS_P2;PMS_P1;PMS_P2;Temp;Humidity;BMP_temperature;BMP_pressure;BME280_temperature;BME280_humidity;BME280_pressure;Samples;Min_cycle;Max_cycle;Signal;HPM_P1;HPM_P2
2023/07/05 00:00:26;;;;;;;7.68;4.07;;;;;;;;;;4996669;28;20076;-72
2023/07/05 00:02:52;;;;;;;8.25;4.00;;;;;;;;;;4994811;28;20026;-72
2023/07/05 00:05:18;;;;;;;8.93;4.25;;;;;;;;;;4994976;28;20057;-72
2023/07/05 00:07:43;;;;;;;10.25;4.82;;;;;;;;;;5011029;28;20061;-72
2023/07/05 00:10:09;;;;;;;7.97;4.07;;;;;;;;;;4995690;28;20468;-72
2023/07/05 00:12:34;;;;;;;8.32;4.30;;;;;;;;;;5010895;28;20022;-72
2023/07/05 00:15:00;;;;;;;6.78;4.10;;;;;;;;;;4995842;28;20022;-72
2023/07/05 00:17:25;;;;;;;6.47;5.18;;;;;;;;;;4994787;28;20381;-72
2023/07/05 00:19:51;;;;;;;8.75;4.65;;;;;;;;;;4994853;28;20439;-72
2023/07/05 00:22:17;;;;;;;8.88;4.15;;;;;;;;;;4995464;28;20030;-71
2023/07/05 00:24:42;;;;;;;8.80;3.63;;;;;;;;;;4995655;28;20071;-72
2023/07/05 00:27:07;;;;;;;11.48;4.65;;;;;;;;;;4995936;28;20506;-72
2023/07/05 00:29:33;;;;;;;16.40;4.80;;;;;;;;;;4994470;28;20045;-72
2023/07/05 00:31:58;;;;;;;9.65;4.65;;;;;;;;;;4995405;28;20023;-72
2023/07/05 00:34:23;;;;;;;11.88;3.80;;;;;;;;;;4994270;28;20054;-72
2023/07/05 00:36:49;;;;;;;10.52;4.00;;;;;;;;;;4994275;28;20027;-72
2023/07/05 00:39:14;;;;;;;4.82;3.55;;;;;;;;;;4994841;28;20032;-72
2023/07/05 00:41:40;;;;;;;7.80;3.72;;;;;;;;;;4994181;28;20554;-72
2023/07/05 00:44:05;;;;;;;9.90;4.13;;;;;;;;;;4993966;28;20054;-72
2023/07/05 00:46:31;;;;;;;6.70;3.72;;;;;;;;;;4994341;28;20022;-72
2023/07/05 00:49:11;;;;;;;8.75;3.72;;;;;;;;;;4993892;28;20034;-72
2023/07/05 00:51:53;;;;;;;10.32;3.67;;;;;;;;;;4994159;28;20030;-72
2023/07/05 00:54:22;;;;;;;7.32;3.90;;;;;;;;;;4993788;28;20030;-72
2023/07/05 00:56:54;;;;;;;4.10;2.67;;;;;;;;;;4993981;28;20527;-72
2023/07/05 00:59:20;;;;;;;5.38;3.30;;;;;;;;;;4993747;28;20032;-72
2023/07/05 01:01:46;;;;;;;4.88;3.58;;;;;;;;;;4995005;28;20019;-72
2023/07/05 01:04:11;;;;;;;6.93;3.13;;;;;;;;;;4993400;28;20084;-72
2023/07/05 01:06:39;;;;;;;10.38;3.70;;;;;;;;;;4984634;28;20041;-72
2023/07/05 01:09:06;;;;;;;8.57;3.47;;;;;;;;;;4978481;28;20036;-72
2023/07/05 01:11:41;;;;;;;10.32;4.50;;;;;;;;;;5009800;28;20036;-72
2023/07/05 01:14:19;;;;;;;4.57;2.83;;;;;;;;;;4992886;28;20030;-72
2023/07/05 01:17:13;;;;;;;5.22;2.70;;;;;;;;;;4993780;28;20499;-72
2023/07/05 01:20:14;;;;;;;9.70;2.80;;;;;;;;;;4992276;28;20071;-72
2023/07/05 01:22:50;;;;;;;5.80;2.53;;;;;;;;;;4993980;28;20033;-72
2023/07/05 01:25:48;;;;;;;6.95;2.92;;;;;;;;;;4994543;28;20030;-72
2023/07/05 01:28:34;;;;;;;6.22;3.88;;;;;;;;;;4970526;28;20129;-72
2023/07/05 01:31:21;;;;;;;6.72;3.45;;;;;;;;;;4993184;28;20105;-72
2023/07/05 01:33:58;;;;;;;9.25;3.47;;;;;;;;;;4994223;28;20034;-72
2023/07/05 01:36:23;;;;;;;9.48;3.55;;;;;;;;;;4994572;28;20089;-72
2023/07/05 01:38:49;;;;;;;5.75;3.33;;;;;;;;;;4992237;28;20030;-72
2023/07/05 01:41:14;;;;;;;7.43;3.85;;;;;;;;;;4994188;28;20026;-72
2023/07/05 01:43:42;;;;;;;9.93;4.22;;;;;;;;;;4994138;28;20451;-72
2023/07/05 01:46:10;;;;;;;9.13;4.25;;;;;;;;;;4993137;28;20022;-72
2023/07/05 01:49:00;;;;;;;7.07;3.90;;;;;;;;;;4992754;28;20022;-72
2023/07/05 01:51:43;;;;;;;6.65;4.03;;;;;;;;;;4993992;28;20038;-72
2023/07/05 01:54:17;;;;;;;9.35;4.43;;;;;;;;;;5047565;23;20047;-66
2023/07/05 01:56:51;;;;;;;10.63;4.38;;;;;;;;;;4993868;28;20065;-67
2023/07/05 01:59:19;;;;;;;11.93;5.10;;;;;;;;;;4999136;28;20031;-67
2023/07/05 02:01:45;;;;;;;11.65;5.03;;;;;;;;;;4989774;28;20094;-66
2023/07/05 02:04:12;;;;;;;13.43;5.38;;;;;;;;;;4997210;28;20048;-67
2023/07/05 02:06:37;;;;;;;12.65;4.72;;;;;;;;;;4992979;28;20026;-66
2023/07/05 02:09:03;;;;;;;7.90;5.35;;;;;;;;;;4991661;28;20372;-66
2023/07/05 02:11:28;;;;;;;7.00;4.40;;;;;;;;;;4987466;28;20023;-66
2023/07/05 02:13:54;;;;;;;9.45;4.65;;;;;;;;;;4979595;28;20034;-66
2023/07/05 02:16:19;;;;;;;8.77;4.05;;;;;;;;;;4992757;28;20026;-67
2023/07/05 02:18:44;;;;;;;11.65;5.57;;;;;;;;;;4990697;28;20033;-66
2023/07/05 02:21:10;;;;;;;9.52;4.40;;;;;;;;;;4993721;28;20044;-66
2023/07/05 02:23:36;;;;;;;8.20;4.10;;;;;;;;;;4991279;28;20510;-66
2023/07/05 02:26:04;;;;;;;8.20;4.78;;;;;;;;;;4987580;28;20031;-66
2023/07/05 02:28:30;;;;;;;8.88;4.30;;;;;;;;;;4972829;28;20493;-66
2023/07/05 02:30:55;;;;;;;8.73;4.60;;;;;;;;;;4976904;28;20060;-66
2023/07/05 02:33:20;;;;;;;8.10;4.65;;;;;;;;;;4993971;28;20026;-67
2023/07/05 02:35:46;;;;;;;4.78;3.50;;;;;;;;;;4991542;28;20022;-66
2023/07/05 02:38:11;;;;;;;11.18;4.57;;;;;;;;;;4976416;28;20026;-67
2023/07/05 02:40:36;;;;;;;7.78;4.05;;;;;;;;;;4973848;28;20018;-67
2023/07/05 02:43:02;;;;;;;13.32;4.95;;;;;;;;;;4987098;28;20026;-67
2023/07/05 02:45:27;;;;;;;8.93;4.88;;;;;;;;;;4993468;28;20019;-67
2023/07/05 02:47:53;;;;;;;6.82;4.75;;;;;;;;;;4992339;28;20022;-67
2023/07/05 02:50:19;;;;;;;9.07;4.57;;;;;;;;;;4993349;28;20333;-67
2023/07/05 02:52:44;;;;;;;6.80;3.97;;;;;;;;;;4989142;28;20030;-67
2023/07/05 02:55:10;;;;;;;10.73;4.22;;;;;;;;;;4974022;28;20029;-67
2023/07/05 02:57:35;;;;;;;9.82;4.25;;;;;;;;;;4973727;28;20023;-67
2023/07/05 03:00:02;;;;;;;8.18;3.70;;;;;;;;;;4988690;28;20122;-67
2023/07/05 03:02:27;;;;;;;11.00;4.13;;;;;;;;;;4993150;28;20037;-67
2023/07/05 03:04:53;;;;;;;5.45;3.38;;;;;;;;;;4989980;28;20022;-67
2023/07/05 03:07:18;;;;;;;13.07;4.70;;;;;;;;;;4993102;28;20390;-67
2023/07/05 03:09:48;;;;;;;8.25;4.07;;;;;;;;;;4987328;28;20031;-67
2023/07/05 03:12:14;;;;;;;6.47;4.50;;;;;;;;;;4973982;28;20111;-67
2023/07/05 03:14:39;;;;;;;7.55;3.85;;;;;;;;;;4982914;28;20018;-67
2023/07/05 03:17:04;;;;;;;10.07;3.70;;;;;;;;;;4993160;28;20027;-67
2023/07/05 03:19:30;;;;;;;8.10;3.80;;;;;;;;;;4993127;28;20022;-66
2023/07/05 03:21:55;;;;;;;8.40;4.28;;;;;;;;;;4993372;28;20018;-66
2023/07/05 03:24:20;;;;;;;6.40;3.58;;;;;;;;;;4993063;28;20080;-67
2023/07/05 03:26:46;;;;;;;6.47;3.72;;;;;;;;;;4985887;28;20036;-66
2023/07/05 03:29:11;;;;;;;9.25;4.15;;;;;;;;;;4986415;28;20032;-66
2023/07/05 03:31:36;;;;;;;5.05;2.83;;;;;;;;;;4992946;28;20073;-67
2023/07/05 03:34:02;;;;;;;7.28;4.30;;;;;;;;;;4992987;28;20392;-66
2023/07/05 03:36:27;;;;;;;7.80;3.65;;;;;;;;;;4993204;28;20022;-67
2023/07/05 03:38:53;;;;;;;7.07;3.40;;;;;;;;;;4992895;28;20027;-67
2023/07/05 03:41:20;;;;;;;7.70;3.53;;;;;;;;;;4992943;28;20019;-67
2023/07/05 03:43:47;;;;;;;6.28;3.72;;;;;;;;;;4991696;28;20109;-67
2023/07/05 03:46:14;;;;;;;9.85;3.20;;;;;;;;;;4996293;28;20026;-67
2023/07/05 03:48:42;;;;;;;9.98;3.72;;;;;;;;;;4994107;28;20030;-67
2023/07/05 03:51:09;;;;;;;7.13;3.97;;;;;;;;;;4996172;28;20420;-67
2023/07/05 03:53:35;;;;;;;6.97;4.60;;;;;;;;;;4983264;28;20467;-67
2023/07/05 03:56:05;;;;;;;6.40;3.50;;;;;;;;;;4976832;28;20031;-66
2023/07/05 03:58:31;;;;;;;7.72;4.05;;;;;;;;;;4983954;28;20114;-67
2023/07/05 04:01:15;;;;;;;6.57;3.33;;;;;;;;;;4996430;28;20101;-67
2023/07/05 04:03:45;;;;;;;7.07;2.97;;;;;;;;;;5010804;28;20034;-67
2023/07/05 04:06:11;;;;;;;8.55;4.20;;;;;;;;;;4996468;28;20045;-67
2023/07/05 04:08:37;;;;;;;3.85;2.53;;;;;;;;;;4996029;28;20027;-67
2023/07/05 04:11:02;;;;;;;6.70;3.00;;;;;;;;;;4992135;28;20054;-67
2023/07/05 04:13:28;;;;;;;9.45;3.10;;;;;;;;;;4995764;28;20019;-67
2023/07/05 04:16:10;;;;;;;7.63;3.63;;;;;;;;;;4979759;28;20027;-67
2023/07/05 04:18:35;;;;;;;5.82;3.10;;;;;;;;;;4985991;28;20037;-67
2023/07/05 04:21:01;;;;;;;7.95;3.55;;;;;;;;;;4995784;28;20030;-66
2023/07/05 04:23:26;;;;;;;6.18;3.03;;;;;;;;;;4995890;28;20072;-66
2023/07/05 04:26:03;;;;;;;5.07;3.28;;;;;;;;;;4995760;28;20512;-66
2023/07/05 04:28:29;;;;;;;7.15;3.00;;;;;;;;;;5010652;28;20027;-66
2023/07/05 04:30:54;;;;;;;5.15;2.80;;;;;;;;;;4995687;28;20049;-66
2023/07/05 04:33:20;;;;;;;6.05;2.92;;;;;;;;;;4995315;28;20480;-66
2023/07/05 04:35:49;;;;;;;7.30;2.85;;;;;;;;;;4994328;28;20026;-66
2023/07/05 04:38:15;;;;;;;8.18;3.83;;;;;;;;;;4995368;28;20030;-66
2023/07/05 04:40:40;;;;;;;5.65;3.30;;;;;;;;;;4995534;28;20109;-66
2023/07/05 04:43:06;;;;;;;5.43;2.92;;;;;;;;;;4995305;28;20026;-66
2023/07/05 04:45:31;;;;;;;7.75;3.47;;;;;;;;;;4992835;28;20034;-66
2023/07/05 04:47:56;;;;;;;9.00;3.42;;;;;;;;;;4995514;28;20033;-66
2023/07/05 04:50:22;;;;;;;6.90;3.33;;;;;;;;;;4994157;28;20065;-66
2023/07/05 04:52:47;;;;;;;8.82;3.83;;;;;;;;;;4977915;28;20045;-66
2023/07/05 04:55:12;;;;;;;6.97;3.67;;;;;;;;;;4975440;28;20029;-66
2023/07/05 04:57:38;;;;;;;5.93;3.08;;;;;;;;;;4986992;28;20022;-66
2023/07/05 05:00:04;;;;;;;9.10;4.13;;;;;;;;;;4995161;28;20031;-67
2023/07/05 05:02:29;;;;;;;5.35;3.70;;;;;;;;;;4995008;28;20029;-67
2023/07/05 05:04:54;;;;;;;7.32;3.55;;;;;;;;;;4994941;28;20319;-66
2023/07/05 05:07:20;;;;;;;9.60;3.88;;;;;;;;;;4992965;28;20480;-66
2023/07/05 05:09:45;;;;;;;13.05;3.90;;;;;;;;;;4992212;28;20027;-67
2023/07/05 05:12:11;;;;;;;6.93;3.60;;;;;;;;;;4994116;28;20026;-67
2023/07/05 05:14:36;;;;;;;7.22;3.42;;;;;;;;;;4993894;28;20076;-66
2023/07/05 05:17:01;;;;;;;5.82;3.50;;;;;;;;;;4977711;28;20037;-67
2023/07/05 05:19:27;;;;;;;6.50;3.40;;;;;;;;;;4975259;28;20078;-67
2023/07/05 05:21:52;;;;;;;7.07;4.30;;;;;;;;;;4976251;28;20381;-67
2023/07/05 05:24:17;;;;;;;10.88;4.25;;;;;;;;;;4975095;28;20031;-67
2023/07/05 05:26:43;;;;;;;8.10;4.10;;;;;;;;;;4984132;28;20033;-66
2023/07/05 05:29:08;;;;;;;7.43;3.95;;;;;;;;;;4994649;28;20388;-67
2023/07/05 05:31:33;;;;;;;6.95;4.10;;;;;;;;;;4992534;28;20085;-66
2023/07/05 05:33:59;;;;;;;8.88;4.60;;;;;;;;;;4976037;28;20033;-67
2023/07/05 05:36:24;;;;;;;8.70;3.67;;;;;;;;;;4975076;28;20080;-66
2023/07/05 05:38:49;;;;;;;7.72;3.97;;;;;;;;;;4988448;28;20541;-67
2023/07/05 05:41:15;;;;;;;9.52;4.57;;;;;;;;;;4994377;28;20029;-66
2023/07/05 05:43:41;;;;;;;9.38;4.30;;;;;;;;;;4994392;28;20036;-67
2023/07/05 05:46:07;;;;;;;5.97;4.00;;;;;;;;;;4994069;28;20528;-66
2023/07/05 05:48:33;;;;;;;6.57;3.75;;;;;;;;;;4978373;28;20038;-67
2023/07/05 05:50:58;;;;;;;7.45;3.95;;;;;;;;;;4985432;28;20030;-67
2023/07/05 05:53:24;;;;;;;7.75;5.70;;;;;;;;;;4994046;28;20454;-66
2023/07/05 05:55:49;;;;;;;5.93;3.97;;;;;;;;;;4993166;28;20029;-66
2023/07/05 05:58:14;;;;;;;6.78;4.63;;;;;;;;;;4992810;28;20033;-66
2023/07/05 06:00:40;;;;;;;9.25;4.80;;;;;;;;;;4992864;28;20468;-66
2023/07/05 06:03:05;;;;;;;7.35;4.32;;;;;;;;;;4974410;28;20023;-66
2023/07/05 06:05:32;;;;;;;8.43;4.65;;;;;;;;;;4974522;28;20026;-67
2023/07/05 06:07:57;;;;;;;11.20;5.30;;;;;;;;;;4988128;28;20030;-66
2023/07/05 06:10:23;;;;;;;6.32;4.75;;;;;;;;;;4993655;28;20416;-67
2023/07/05 06:12:48;;;;;;;10.68;4.68;;;;;;;;;;5008969;28;20033;-67
2023/07/05 06:15:14;;;;;;;9.85;4.20;;;;;;;;;;5009064;28;20577;-66
2023/07/05 06:17:39;;;;;;;8.38;4.20;;;;;;;;;;4991231;28;20030;-66
2023/07/05 06:20:06;;;;;;;9.32;4.35;;;;;;;;;;4973086;28;20029;-66
2023/07/05 06:22:32;;;;;;;11.77;5.35;;;;;;;;;;4974149;28;20033;-67
2023/07/05 06:24:58;;;;;;;8.13;5.40;;;;;;;;;;4992885;28;20446;-67
2023/07/05 06:27:23;;;;;;;7.18;4.57;;;;;;;;;;4993831;28;20040;-66
2023/07/05 06:29:48;;;;;;;7.25;4.70;;;;;;;;;;4993541;28;20052;-66
2023/07/05 06:32:14;;;;;;;7.97;5.35;;;;;;;;;;4993509;28;20035;-66
2023/07/05 06:34:39;;;;;;;10.38;4.38;;;;;;;;;;4993266;28;20026;-67
2023/07/05 06:37:05;;;;;;;11.20;6.20;;;;;;;;;;4993607;28;20388;-67
2023/07/05 06:39:30;;;;;;;8.30;4.25;;;;;;;;;;5009025;28;20022;-67
2023/07/05 06:41:56;;;;;;;9.77;4.95;;;;;;;;;;4993282;28;20060;-66
2023/07/05 06:44:21;;;;;;;9.38;4.97;;;;;;;;;;4993800;28;20032;-67
2023/07/05 06:46:46;;;;;;;11.13;4.88;;;;;;;;;;4993427;28;20495;-66
2023/07/05 06:49:12;;;;;;;8.82;4.93;;;;;;;;;;4993739;28;20030;-66
2023/07/05 06:51:37;;;;;;;10.13;4.75;;;;;;;;;;4993050;28;20088;-67
2023/07/05 06:54:02;;;;;;;8.70;4.60;;;;;;;;;;4993250;28;20550;-67
2023/07/05 06:56:28;;;;;;;10.13;5.30;;;;;;;;;;4993156;28;20061;-67
2023/07/05 06:58:53;;;;;;;9.27;5.30;;;;;;;;;;4993342;28;20422;-67
2023/07/05 07:01:18;;;;;;;9.27;4.80;;;;;;;;;;5008556;28;20025;-67
2023/07/05 07:03:44;;;;;;;8.95;4.70;;;;;;;;;;4993039;28;20025;-67
2023/07/05 07:06:10;;;;;;;9.48;5.93;;;;;;;;;;4993423;28;20018;-66
2023/07/05 07:08:37;;;;;;;11.88;5.90;;;;;;;;;;4993091;28;20029;-66
2023/07/05 07:11:03;;;;;;;11.05;5.13;;;;;;;;;;4992078;28;20022;-67
2023/07/05 07:13:29;;;;;;;8.40;5.07;;;;;;;;;;4992212;28;20068;-67
2023/07/05 07:16:06;;;;;;;8.88;4.95;;;;;;;;;;4991637;28;20033;-67
2023/07/05 07:18:32;;;;;;;7.22;5.20;;;;;;;;;;5008319;28;20057;-67
2023/07/05 07:20:59;;;;;;;7.30;4.95;;;;;;;;;;4996847;28;20029;-68
2023/07/05 07:23:25;;;;;;;9.00;6.00;;;;;;;;;;4994746;28;20542;-67
2023/07/05 07:26:23;;;;;;;6.60;4.97;;;;;;;;;;4997217;28;20129;-67
2023/07/05 07:28:51;;;;;;;9.75;5.50;;;;;;;;;;4981590;28;20045;-67
2023/07/05 07:31:28;;;;;;;8.57;5.57;;;;;;;;;;4995909;28;20168;-67
2023/07/05 07:33:53;;;;;;;8.43;5.70;;;;;;;;;;4995510;28;20496;-67
2023/07/05 07:36:22;;;;;;;11.10;5.32;;;;;;;;;;4997035;28;20041;-68
2023/07/05 07:38:47;;;;;;;10.85;5.80;;;;;;;;;;4994777;28;20029;-67
2023/07/05 07:41:18;;;;;;;10.13;7.03;;;;;;;;;;4991342;28;20388;-68
2023/07/05 07:43:44;;;;;;;9.77;5.82;;;;;;;;;;4993374;28;20037;-68
2023/07/05 07:46:15;;;;;;;9.90;5.60;;;;;;;;;;4991950;28;20034;-67
2023/07/05 07:48:42;;;;;;;10.60;6.60;;;;;;;;;;4995759;28;20019;-67
2023/07/05 07:51:09;;;;;;;11.68;7.00;;;;;;;;;;4997186;28;20472;-68
2023/07/05 07:53:35;;;;;;;9.40;5.68;;;;;;;;;;5011759;28;20034;-68
2023/07/05 07:56:00;;;;;;;9.98;6.05;;;;;;;;;;4996438;28;20073;-68
2023/07/05 07:58:26;;;;;;;10.80;5.57;;;;;;;;;;5011717;28;20030;-67
2023/07/05 08:00:52;;;;;;;10.23;5.68;;;;;;;;;;5011731;28;20026;-68
2023/07/05 08:03:18;;;;;;;11.20;6.88;;;;;;;;;;5011424;28;20458;-68
2023/07/05 08:05:43;;;;;;;9.43;6.25;;;;;;;;;;4996250;28;20044;-68
2023/07/05 08:08:09;;;;;;;10.07;6.47;;;;;;;;;;4998576;28;20037;-68
2023/07/05 08:10:34;;;;;;;9.75;5.75;;;;;;;;;;4976584;28;20077;-68
2023/07/05 08:12:59;;;;;;;9.05;6.25;;;;;;;;;;4978971;28;20033;-68
2023/07/05 08:15:25;;;;;;;10.65;5.97;;;;;;;;;;4976624;28;20030;-68
2023/07/05 08:17:50;;;;;;;10.57;6.20;;;;;;;;;;4976646;28;20034;-68
2023/07/05 08:20:16;;;;;;;12.40;8.02;;;;;;;;;;4996089;28;20388;-68
2023/07/05 08:22:41;;;;;;;8.27;5.82;;;;;;;;;;4975231;28;20027;-67
2023/07/05 08:25:07;;;;;;;12.07;6.55;;;;;;;;;;4976013;28;20088;-67
2023/07/05 08:27:32;;;;;;;10.50;6.55;;;;;;;;;;4992308;28;20117;-69
2023/07/05 08:29:58;;;;;;;10.02;6.05;;;;;;;;;;4995276;28;20026;-68
2023/07/05 08:32:23;;;;;;;9.82;6.05;;;;;;;;;;4983975;28;20030;-68
2023/07/05 08:34:51;;;;;;;10.27;6.40;;;;;;;;;;4975969;28;20501;-68
2023/07/05 08:37:17;;;;;;;9.00;6.70;;;;;;;;;;4982672;28;20095;-68
2023/07/05 08:39:42;;;;;;;10.05;6.15;;;;;;;;;;4995668;28;20477;-68
2023/07/05 08:42:22;;;;;;;10.80;7.00;;;;;;;;;;4994166;28;20022;-67
2023/07/05 08:45:03;;;;;;;10.10;6.78;;;;;;;;;;4975964;28;20034;-68
2023/07/05 08:47:40;;;;;;;12.88;7.35;;;;;;;;;;4974907;28;20027;-68
2023/07/05 08:50:13;;;;;;;10.75;7.00;;;;;;;;;;4993580;28;20113;-68
2023/07/05 08:52:44;;;;;;;12.27;7.15;;;;;;;;;;4995078;28;20076;-68
2023/07/05 08:55:13;;;;;;;13.38;7.68;;;;;;;;;;4995459;28;20030;-68
2023/07/05 08:57:43;;;;;;;11.68;7.38;;;;;;;;;;4993793;28;20022;-69
2023/07/05 09:00:13;;;;;;;12.88;6.50;;;;;;;;;;4981310;28;20031;-68
2023/07/05 09:02:39;;;;;;;10.63;8.10;;;;;;;;;;4974338;28;20457;-67
2023/07/05 09:05:13;;;;;;;12.80;8.55;;;;;;;;;;4983085;28;20105;-68
2023/07/05 09:08:07;;;;;;;12.27;6.82;;;;;;;;;;4995447;28;20030;-68
2023/07/05 09:10:54;;;;;;;14.10;7.25;;;;;;;;;;4986232;28;20027;-68
2023/07/05 09:13:31;;;;;;;11.15;6.60;;;;;;;;;;4974288;28;20031;-68
2023/07/05 09:16:05;;;;;;;12.02;7.07;;;;;;;;;;4979581;28;20040;-68
2023/07/05 09:18:49;;;;;;;12.70;7.28;;;;;;;;;;4995274;28;20472;-67
2023/07/05 09:21:34;;;;;;;11.50;7.05;;;;;;;;;;4994674;28;20022;-68
2023/07/05 09:24:08;;;;;;;10.02;6.55;;;;;;;;;;4994645;28;20515;-68
2023/07/05 09:26:37;;;;;;;11.40;8.43;;;;;;;;;;4990976;28;20398;-68
2023/07/05 09:29:06;;;;;;;11.60;7.10;;;;;;;;;;4993910;28;20050;-68
2023/07/05 09:31:34;;;;;;;11.77;7.10;;;;;;;;;;4994452;28;20033;-68
2023/07/05 09:34:18;;;;;;;11.32;6.82;;;;;;;;;;4979474;28;20037;-68
2023/07/05 09:36:43;;;;;;;12.30;7.50;;;;;;;;;;4974682;28;20026;-67
2023/07/05 09:39:28;;;;;;;11.73;7.95;;;;;;;;;;4993398;28;20452;-68
2023/07/05 09:41:56;;;;;;;7.68;5.97;;;;;;;;;;4991142;28;20024;-68
2023/07/05 09:44:21;;;;;;;8.82;6.55;;;;;;;;;;4990124;28;20433;-67
2023/07/05 09:46:47;;;;;;;10.48;5.65;;;;;;;;;;4989717;28;20018;-67
2023/07/05 09:49:17;;;;;;;9.05;6.43;;;;;;;;;;4988555;28;20081;-67
2023/07/05 09:51:45;;;;;;;9.60;6.70;;;;;;;;;;4991640;28;20490;-68
2023/07/05 09:54:16;;;;;;;9.50;5.40;;;;;;;;;;4992748;28;20037;-68
2023/07/05 09:56:55;;;;;;;7.95;5.88;;;;;;;;;;4980867;28;20038;-68
2023/07/05 09:59:21;;;;;;;7.68;5.05;;;;;;;;;;4974775;28;20019;-67
2023/07/05 10:01:50;;;;;;;7.63;6.18;;;;;;;;;;4974689;28;20388;-68
2023/07/05 10:04:16;;;;;;;5.22;3.47;;;;;;;;;;4980663;28;20030;-70
2023/07/05 10:06:44;;;;;;;6.95;3.67;;;;;;;;;;4969026;28;20412;-68
2023/07/05 10:09:15;;;;;;;6.97;3.65;;;;;;;;;;4989885;28;20492;-68
2023/07/05 10:11:46;;;;;;;6.68;3.72;;;;;;;;;;5008812;28;20157;-69
2023/07/05 10:14:15;;;;;;;;;;;;;;;;;;5007319;28;20034;-69
2023/07/05 10:16:58;;;;;;;8.15;3.92;;;;;;;;;;4993422;28;20435;-69
2023/07/05 10:19:28;;;;;;;6.50;3.80;;;;;;;;;;4989479;28;20037;-69
2023/07/05 10:22:07;;;;;;;6.53;3.35;;;;;;;;;;4988878;28;20022;-68
2023/07/05 10:24:42;;;;;;;9.05;3.22;;;;;;;;;;4980647;28;20653;-69
2023/07/05 10:27:19;;;;;;;6.40;2.85;;;;;;;;;;4983423;28;20026;-68
2023/07/05 10:29:51;;;;;;;4.75;3.05;;;;;;;;;;4981773;28;20034;-68
2023/07/05 10:32:22;;;;;;;7.03;2.53;;;;;;;;;;4990231;28;20037;-69
2023/07/05 10:34:50;;;;;;;3.35;2.35;;;;;;;;;;4989305;28;20109;-68
2023/07/05 10:37:33;;;;;;;3.20;1.90;;;;;;;;;;4985384;28;20026;-68
2023/07/05 10:40:03;;;;;;;4.13;2.10;;;;;;;;;;4983955;28;20041;-68
2023/07/05 10:42:29;;;;;;;3.92;2.63;;;;;;;;;;4986340;28;20018;-68
2023/07/05 10:44:55;;;;;;;3.72;2.22;;;;;;;;;;4980930;28;20026;-69
2023/07/05 10:47:21;;;;;;;4.95;2.45;;;;;;;;;;4986247;28;20054;-68
2023/07/05 10:49:50;;;;;;;3.05;2.00;;;;;;;;;;4995959;28;20058;-68
2023/07/05 10:52:17;;;;;;;4.38;2.00;;;;;;;;;;4974296;28;64258;-67
2023/07/05 10:55:10;;;;;;;5.25;2.45;;;;;;;;;;4986368;28;20057;-68
2023/07/05 10:57:44;;;;;;;5.15;2.60;;;;;;;;;;4997676;28;20025;-68
2023/07/05 11:00:37;;;;;;;3.60;2.67;;;;;;;;;;4987004;28;20396;-67
2023/07/05 11:03:12;;;;;;;3.97;2.22;;;;;;;;;;5000396;28;20042;-67
2023/07/05 11:05:47;;;;;;;3.83;2.28;;;;;;;;;;4991418;28;20487;-68
2023/07/05 11:08:25;;;;;;;4.40;2.35;;;;;;;;;;4997496;28;20391;-68
2023/07/05 11:10:52;;;;;;;3.58;2.00;;;;;;;;;;4997095;28;20030;-68
2023/07/05 11:13:17;;;;;;;4.28;2.30;;;;;;;;;;4994727;28;20080;-68
2023/07/05 11:15:44;;;;;;;5.75;2.17;;;;;;;;;;4993867;28;20023;-68
2023/07/05 11:18:15;;;;;;;4.57;2.65;;;;;;;;;;5012360;28;20110;-68
2023/07/05 11:20:40;;;;;;;3.47;2.22;;;;;;;;;;4995836;28;20025;-68
2023/07/05 11:23:10;;;;;;;4.80;2.50;;;;;;;;;;4996675;28;20027;-67
2023/07/05 11:25:54;;;;;;;3.55;1.95;;;;;;;;;;4995820;28;20449;-68
2023/07/05 11:28:35;;;;;;;2.85;2.10;;;;;;;;;;4996759;28;20015;-68
2023/07/05 11:31:02;;;;;;;3.33;1.83;;;;;;;;;;5000575;28;20038;-68
2023/07/05 11:33:28;;;;;;;3.72;2.25;;;;;;;;;;4995357;28;20035;-68
2023/07/05 11:35:59;;;;;;;3.22;1.73;;;;;;;;;;4994531;28;20033;-68
2023/07/05 11:38:36;;;;;;;4.90;2.20;;;;;;;;;;4996805;28;20073;-67
2023/07/05 11:41:08;;;;;;;;;;;;;;;;;;4997171;28;20109;-68
2023/07/05 11:43:37;;;;;;;3.88;2.55;;;;;;;;;;5011261;28;19913;-66
2023/07/05 11:46:04;;;;;;;4.15;2.47;;;;;;;;;;4994121;28;20030;-67
2023/07/05 11:48:41;;;;;;;4.40;2.50;;;;;;;;;;4996253;28;20480;-66
2023/07/05 11:51:18;;;;;;;;;;;;;;;;;;4995676;28;20023;-66
2023/07/05 11:53:44;;;;;;;4.53;2.92;;;;;;;;;;4987255;28;20000;-66
2023/07/05 11:56:09;;;;;;;4.78;2.65;;;;;;;;;;4994221;28;20029;-67
2023/07/05 11:58:35;;;;;;;4.20;2.75;;;;;;;;;;5011396;28;20095;-67
2023/07/05 12:01:02;;;;;;;3.88;2.42;;;;;;;;;;4995129;28;20032;-67
2023/07/05 12:03:31;;;;;;;6.07;2.60;;;;;;;;;;4993906;28;20096;-67
2023/07/05 12:06:08;;;;;;;4.43;2.28;;;;;;;;;;4995273;28;20545;-67
2023/07/05 12:08:40;;;;;;;4.38;2.97;;;;;;;;;;4992902;28;20069;-67
2023/07/05 12:11:11;;;;;;;4.50;2.33;;;;;;;;;;4996035;28;20054;-67
2023/07/05 12:13:37;;;;;;;4.93;2.30;;;;;;;;;;4992394;28;20045;-67
2023/07/05 12:16:05;;;;;;;6.03;2.33;;;;;;;;;;4997740;28;20267;-69
2023/07/05 12:18:31;;;;;;;4.03;2.63;;;;;;;;;;5001643;28;20037;-68
2023/07/05 12:20:58;;;;;;;6.18;2.83;;;;;;;;;;4995577;28;20022;-69
2023/07/05 12:23:28;;;;;;;4.07;2.60;;;;;;;;;;4995921;28;20034;-69
2023/07/05 12:25:55;;;;;;;3.60;1.95;;;;;;;;;;5010407;28;20022;-69
2023/07/05 12:28:25;;;;;;;2.33;1.80;;;;;;;;;;5008156;28;20062;-69
2023/07/05 12:30:58;;;;;;;4.40;1.80;;;;;;;;;;4995429;28;20113;-69
2023/07/05 12:33:26;;;;;;;4.78;1.73;;;;;;;;;;4994338;28;20488;-69
2023/07/05 12:36:09;;;;;;;1.73;1.50;;;;;;;;;;4982514;28;20113;-69
2023/07/05 12:38:35;;;;;;;2.85;2.05;;;;;;;;;;4995317;28;20432;-69
2023/07/05 12:41:01;;;;;;;4.50;1.67;;;;;;;;;;4994264;28;20030;-69
2023/07/05 12:43:32;;;;;;;3.38;1.58;;;;;;;;;;4995309;28;20019;-69
2023/07/05 12:46:24;;;;;;;2.60;1.63;;;;;;;;;;4994256;28;20105;-69
2023/07/05 12:48:50;;;;;;;2.55;1.50;;;;;;;;;;4992205;28;20104;-69
2023/07/05 12:51:19;;;;;;;2.67;1.60;;;;;;;;;;4995157;28;20026;-70
2023/07/05 12:53:48;;;;;;;3.05;1.38;;;;;;;;;;4995165;28;20026;-69
2023/07/05 12:56:18;;;;;;;3.65;1.42;;;;;;;;;;4988598;28;20116;-68
2023/07/05 12:59:05;;;;;;;2.70;1.48;;;;;;;;;;5009992;28;20033;-68
2023/07/05 13:01:34;;;;;;;3.25;1.55;;;;;;;;;;5009960;28;20062;-69
2023/07/05 13:04:00;;;;;;;3.25;1.55;;;;;;;;;;4993166;28;20030;-68
2023/07/05 13:06:25;;;;;;;4.13;2.30;;;;;;;;;;4995115;28;20053;-68
2023/07/05 13:08:52;;;;;;;6.85;1.73;;;;;;;;;;4989213;28;20142;-68
2023/07/05 13:11:20;;;;;;;2.97;1.35;;;;;;;;;;4982517;28;20097;-67
2023/07/05 13:13:45;;;;;;;4.78;1.60;;;;;;;;;;4986537;28;20044;-67
2023/07/05 13:16:17;;;;;;;4.25;1.73;;;;;;;;;;4983518;28;20516;-66
2023/07/05 13:18:55;;;;;;;3.78;1.65;;;;;;;;;;4990115;28;20049;-67
2023/07/05 13:21:20;;;;;;;5.22;1.85;;;;;;;;;;5003855;28;20019;-67
2023/07/05 13:23:47;;;;;;;4.05;2.13;;;;;;;;;;4989384;28;20022;-67
2023/07/05 13:26:26;;;;;;;3.38;1.98;;;;;;;;;;4990035;28;20503;-67
2023/07/05 13:28:53;;;;;;;4.20;2.92;;;;;;;;;;4989091;28;20476;-67
2023/07/05 13:31:20;;;;;;;5.75;2.28;;;;;;;;;;4990329;28;20022;-68
2023/07/05 13:33:46;;;;;;;3.50;2.10;;;;;;;;;;4985532;28;20113;-67
2023/07/05 13:36:11;;;;;;;3.97;1.85;;;;;;;;;;4983965;28;20486;-67
2023/07/05 13:38:36;;;;;;;2.78;1.83;;;;;;;;;;4989069;28;20026;-66
2023/07/05 13:41:03;;;;;;;3.47;1.95;;;;;;;;;;4985004;28;20026;-68
2023/07/05 13:43:30;;;;;;;5.13;2.05;;;;;;;;;;4984060;28;20022;-67
2023/07/05 13:45:57;;;;;;;3.70;1.90;;;;;;;;;;4988333;28;20050;-67
2023/07/05 13:48:22;;;;;;;5.63;2.53;;;;;;;;;;4983494;28;20546;-68
2023/07/05 13:50:48;;;;;;;3.47;1.88;;;;;;;;;;4985237;28;20042;-68
2023/07/05 13:53:20;;;;;;;3.90;1.88;;;;;;;;;;4997576;28;20027;-67
2023/07/05 13:55:46;;;;;;;2.33;1.70;;;;;;;;;;4987860;28;20096;-67
2023/07/05 13:58:15;;;;;;;3.25;2.15;;;;;;;;;;4987657;28;20480;-67
2023/07/05 14:00:43;;;;;;;4.28;1.80;;;;;;;;;;4987616;28;20029;-68
2023/07/05 14:03:08;;;;;;;5.65;1.90;;;;;;;;;;5005572;28;20023;-68
2023/07/05 14:05:34;;;;;;;3.28;2.17;;;;;;;;;;4987780;28;20438;-69
2023/07/05 14:08:02;;;;;;;4.50;2.00;;;;;;;;;;4998217;28;20022;-69
2023/07/05 14:10:28;;;;;;;3.30;1.65;;;;;;;;;;4987972;28;20081;-69
2023/07/05 14:12:54;;;;;;;3.42;1.58;;;;;;;;;;4988430;28;20034;-69
2023/07/05 14:15:31;;;;;;;4.50;1.70;;;;;;;;;;4986334;28;20069;-68
2023/07/05 14:17:57;;;;;;;;;;;;;;;;;;4978087;28;20042;-69
2023/07/05 14:20:23;;;;;;;3.33;1.90;;;;;;;;;;4987869;28;20339;-69
2023/07/05 14:22:49;;;;;;;4.40;1.80;;;;;;;;;;4984167;28;20481;-68
2023/07/05 14:25:20;;;;;;;2.92;1.73;;;;;;;;;;4980007;28;20094;-69
2023/07/05 14:27:45;;;;;;;4.18;1.92;;;;;;;;;;4989845;28;20030;-69
2023/07/05 14:30:11;;;;;;;4.18;1.52;;;;;;;;;;4995041;28;20030;-70
2023/07/05 14:32:37;;;;;;;6.30;1.85;;;;;;;;;;4992131;28;20030;-69
2023/07/05 14:35:18;;;;;;;8.45;2.47;;;;;;;;;;4988722;28;20488;-68
2023/07/05 14:37:51;;;;;;;5.72;2.75;;;;;;;;;;4987221;28;20427;-69
2023/07/05 14:40:17;;;;;;;6.07;2.65;;;;;;;;;;4985652;28;20026;-68
2023/07/05 14:42:43;;;;;;;5.22;1.70;;;;;;;;;;4984959;28;20034;-68
2023/07/05 14:45:20;;;;;;;11.57;2.03;;;;;;;;;;5006601;28;20049;-68
2023/07/05 14:47:53;;;;;;;7.18;2.13;;;;;;;;;;4987650;28;20148;-69
2023/07/05 14:50:18;;;;;;;9.98;2.00;;;;;;;;;;4985043;28;20023;-70